METAR ET TAF INFORMATION
METAR FOR KDLO
ADDS - METARS form results

(1503 UTC 20 May 2019)
Data provider http://aviationweather.gov/metar/data/
 
METAR text: KDLO 201455Z AUTO 01003KT 10SM SCT039 11/07 A2994 RMK AO2 T01050071
Conditions at: KDLO (DELANO , CA, US) observed 1455 UTC 20 May 2019
Temperature: 10.5°C (51°F)
Dewpoint: 7.1°C (45°F) [RH = 79%]
Pressure (altimeter): 29.94 inches Hg (1014.0 mb)
Winds: from the N (10 degrees) at 3 MPH (3 knots; 1.5 m/s)
Visibility: 10 or more miles (16+ km)
Ceiling: at least 12,000 feet AGL
Clouds: scattered clouds at 3900 feet AGL
Weather: automated observation with no human augmentation;
there may or may not be significant weather present at this time

METAR text: KDLO 201435Z AUTO 00000KT 10SM SCT004 10/08 A2994 RMK AO2 T00980081
Conditions at: KDLO (DELANO , CA, US) observed 1435 UTC 20 May 2019
Temperature: 9.8°C (50°F)
Dewpoint: 8.1°C (47°F) [RH = 89%]
Pressure (altimeter): 29.94 inches Hg (1014.0 mb)
Winds: calm
Visibility: 10 or more miles (16+ km)
Ceiling: at least 12,000 feet AGL
Clouds: scattered clouds at 400 feet AGL
Weather: automated observation with no human augmentation;
there may or may not be significant weather present at this time

METAR text: KDLO 201415Z AUTO 00000KT 10SM SCT004 10/08 A2994 RMK AO2 T00950082
Conditions at: KDLO (DELANO , CA, US) observed 1415 UTC 20 May 2019
Temperature: 9.5°C (49°F)
Dewpoint: 8.2°C (47°F) [RH = 92%]
Pressure (altimeter): 29.94 inches Hg (1014.0 mb)
Winds: calm
Visibility: 10 or more miles (16+ km)
Ceiling: at least 12,000 feet AGL
Clouds: scattered clouds at 400 feet AGL
Weather: automated observation with no human augmentation;
there may or may not be significant weather present at this time

 AÉROPORT DE AÉROPORT

 INFORMATIONS DE PISTE
Piste 14 Longueur de la piste 5650 ft Largeur de la piste 75 ft
Élévation de la piste 313 ft Seuil de la piste déplacés 1640 ft Runway heading 159
Piste 32 Longueur de la piste 5650 ft Largeur de la piste 75 ft
Élévation de la piste 311 ft Seuil de la piste déplacés 0 ft Runway heading 339

 AÉROPORT FRÉQUENCES
Type A/D Nom BAKERSFIEL Féquence 118.9 MHZ
Type AWOS Nom AWOS 3 Féquence 119.55 MHZ
Type UNIC Nom CTAF/UNICO Féquence 122.8 MHZ

 SIDA DE NAVIGATION



Powered by Virtual Airlines Manager [v2.6.2]